Time;durP1;ratioP1;P1;durP2;ratioP2;P2;SDS_P1;SDS_P2;PMS_P1;PMS_P2;Temp;Humidity;BMP_temperature;BMP_pressure;BME280_temperature;BME280_humidity;BME280_pressure;Samples;Min_cycle;Max_cycle;Signal;HPM_P1;HPM_P2
2022/01/10 00:00:12;;;;;;;;;;;5.30;99.90;;;;;;5056036;28;19908;-44
2022/01/10 00:02:39;;;;;;;;;;;5.40;99.90;;;;;;5056363;28;20007;-46
2022/01/10 00:05:06;;;;;;;;;;;5.30;99.90;;;;;;5057892;28;19916;-47
2022/01/10 00:07:32;;;;;;;;;;;5.30;99.90;;;;;;5054953;28;20503;-45
2022/01/10 00:09:59;;;;;;;;;;;5.30;99.90;;;;;;5055013;28;19952;-45
2022/01/10 00:12:26;;;;;;;;;;;5.30;99.90;;;;;;5055796;28;19948;-44
2022/01/10 00:14:52;;;;;;;;;;;5.40;99.90;;;;;;5056007;28;19909;-45
2022/01/10 00:17:18;;;;;;;;;;;5.30;99.90;;;;;;5055885;28;19919;-47
2022/01/10 00:19:45;;;;;;;;;;;5.30;99.90;;;;;;5056045;28;19909;-46
2022/01/10 00:22:11;;;;;;;;;;;5.30;99.90;;;;;;5056451;28;20004;-47
2022/01/10 00:24:38;;;;;;;;;;;5.30;99.90;;;;;;5056517;28;19905;-46
2022/01/10 00:27:05;;;;;;;;;;;5.30;99.90;;;;;;5056305;28;19948;-44
2022/01/10 00:29:32;;;;;;;;;;;5.30;99.90;;;;;;5057228;28;19965;-46
2022/01/10 00:31:59;;;;;;;;;;;5.30;99.90;;;;;;5055491;28;19917;-46
2022/01/10 00:34:27;;;;;;;;;;;5.30;99.90;;;;;;5057767;28;20127;-45
2022/01/10 00:36:54;;;;;;;;;;;5.30;99.90;;;;;;5056766;28;19966;-48
2022/01/10 00:39:20;;;;;;;;;;;5.30;99.90;;;;;;5056757;28;19978;-46
2022/01/10 00:41:47;;;;;;;;;;;5.30;99.90;;;;;;5057758;28;19912;-44
2022/01/10 00:44:14;;;;;;;;;;;5.30;99.90;;;;;;5056116;28;19909;-47
2022/01/10 00:46:41;;;;;;;;;;;5.20;99.90;;;;;;5057580;28;19962;-45
2022/01/10 00:49:08;;;;;;;;;;;5.20;99.90;;;;;;5057007;28;20368;-48
2022/01/10 00:51:34;;;;;;;;;;;5.30;99.90;;;;;;5056814;28;19919;-48
2022/01/10 00:54:01;;;;;;;;;;;5.20;99.90;;;;;;5057097;28;20208;-46
2022/01/10 00:56:28;;;;;;;;;;;5.20;99.90;;;;;;5057504;28;19920;-45
2022/01/10 00:58:54;;;;;;;;;;;5.20;99.90;;;;;;5057891;28;19930;-45
2022/01/10 01:01:19;;;;;;;;;;;5.20;99.90;;;;;;5057136;28;19991;-49
2022/01/10 01:03:47;;;;;;;;;;;5.30;99.90;;;;;;5057398;28;19908;-50
2022/01/10 01:06:15;;;;;;;;;;;5.30;99.90;;;;;;5056794;28;19911;-45
2022/01/10 01:09:02;;;;;;;;;;;5.30;99.90;;;;;;5056350;28;20355;-48
2022/01/10 01:14:06;;;;;;;;;;;5.20;99.90;;;;;;5058189;28;19944;-45
2022/01/10 01:24:19;;;;;;;;;;;5.30;99.90;;;;;;5058171;28;19971;-49
2022/01/10 01:26:47;;;;;;;;;;;5.30;99.90;;;;;;5056421;28;20293;-49
2022/01/10 01:29:15;;;;;;;;;;;5.30;99.90;;;;;;5055569;28;20280;-47
2022/01/10 01:31:41;;;;;;;;;;;5.30;99.90;;;;;;5055448;28;20196;-50
2022/01/10 01:34:07;;;;;;;;;;;5.30;99.90;;;;;;5060192;28;20466;-45
2022/01/10 01:36:34;;;;;;;;;;;5.30;99.90;;;;;;5060262;28;19950;-45
2022/01/10 01:39:05;;;;;;;;;;;5.30;99.90;;;;;;5060942;28;19998;-45
2022/01/10 01:43:58;;;;;;;;;;;5.30;99.90;;;;;;5060399;28;19943;-45
2022/01/10 01:46:25;;;;;;;;;;;5.30;99.90;;;;;;5077351;28;19908;-46
2022/01/10 01:48:58;;;;;;;;;;;5.30;99.90;;;;;;5060303;28;19911;-45
2022/01/10 01:51:25;;;;;;;;;;;5.30;99.90;;;;;;5058787;28;19938;-45
2022/01/10 01:53:52;;;;;;;;;;;5.30;99.90;;;;;;5059016;28;19908;-45
2022/01/10 01:56:18;;;;;;;;;;;5.30;99.90;;;;;;5059686;28;19908;-45
2022/01/10 02:01:47;;;;;;;;;;;5.20;99.90;;;;;;5076716;28;20222;-45
2022/01/10 02:04:13;;;;;;;;;;;5.20;99.90;;;;;;5059353;28;19905;-49
2022/01/10 02:06:39;;;;;;;;;;;5.20;99.90;;;;;;5059046;28;20246;-45
2022/01/10 02:09:06;;;;;;;;;;;5.20;99.90;;;;;;5059385;28;19920;-45
2022/01/10 02:11:33;;;;;;;;;;;5.20;99.90;;;;;;5059157;28;20280;-45
2022/01/10 02:14:05;;;;;;;;;;;5.20;99.90;;;;;;5057690;28;20234;-45
2022/01/10 02:16:39;;;;;;;;;;;5.20;99.90;;;;;;5073471;28;19987;-45
2022/01/10 02:19:04;;;;;;;;;;;5.20;99.90;;;;;;5056741;28;20169;-49
2022/01/10 02:21:33;;;;;;;;;;;5.20;99.90;;;;;;5072901;28;20619;-45
2022/01/10 02:24:10;;;;;;;;;;;5.30;99.90;;;;;;5056003;28;20207;-47
2022/01/10 02:26:37;;;;;;;;;;;5.30;99.90;;;;;;5055311;28;19911;-45
2022/01/10 02:31:49;;;;;;;;;;;5.30;99.90;;;;;;5058963;28;19931;-46
2022/01/10 02:34:18;;;;;;;;;;;5.20;99.90;;;;;;5056949;28;20193;-46
2022/01/10 02:36:44;;;;;;;;;;;5.20;99.90;;;;;;5074081;28;19989;-45
2022/01/10 02:39:11;;;;;;;;;;;5.30;99.90;;;;;;5057902;28;20015;-47
2022/01/10 02:41:38;;;;;;;;;;;5.20;99.90;;;;;;5075443;28;19905;-49
2022/01/10 02:44:05;;;;;;;;;;;5.20;99.90;;;;;;5076221;28;19966;-45
2022/01/10 02:46:34;;;;;;;;;;;5.30;99.90;;;;;;5059449;28;19905;-46
2022/01/10 02:55:24;;;;;;;;;;;5.30;99.90;;;;;;5079963;28;20007;-45
2022/01/10 02:57:49;;;;;;;;;;;5.30;99.90;;;;;;5060824;28;19985;-45
2022/01/10 03:00:17;;;;;;;;;;;5.30;99.90;;;;;;5079241;28;19980;-46
2022/01/10 03:02:44;;;;;;;;;;;5.30;99.90;;;;;;5062208;28;19920;-45
2022/01/10 03:05:10;;;;;;;;;;;5.30;99.90;;;;;;5061969;28;19927;-46
2022/01/10 03:07:38;;;;;;;;;;;5.30;99.90;;;;;;5062351;28;19904;-45
2022/01/10 03:10:05;;;;;;;;;;;5.30;99.90;;;;;;5079187;28;20006;-48
2022/01/10 03:12:32;;;;;;;;;;;5.30;99.90;;;;;;5061710;28;19974;-47
2022/01/10 03:14:59;;;;;;;;;;;5.30;99.90;;;;;;5061908;28;19994;-45
2022/01/10 03:17:26;;;;;;;;;;;5.30;99.90;;;;;;5061584;28;20287;-44
2022/01/10 03:19:51;;;;;;;;;;;5.30;99.90;;;;;;5062062;28;19914;-44
2022/01/10 03:22:18;;;;;;;;;;;5.30;99.90;;;;;;5079261;28;19904;-45
2022/01/10 03:24:45;;;;;;;;;;;5.30;99.90;;;;;;5061743;28;19920;-44
2022/01/10 03:27:11;;;;;;;;;;;5.30;99.90;;;;;;5060984;28;20196;-44
2022/01/10 03:29:38;;;;;;;;;;;5.30;99.90;;;;;;5079584;28;20257;-44
2022/01/10 03:32:06;;;;;;;;;;;5.30;99.90;;;;;;5079085;28;19986;-44
2022/01/10 03:34:32;;;;;;;;;;;5.40;99.90;;;;;;5061106;28;20002;-46
2022/01/10 03:37:17;;;;;;;;;;;5.40;99.90;;;;;;5079319;28;19973;-50
2022/01/10 03:39:44;;;;;;;;;;;5.40;99.90;;;;;;5095616;28;19992;-44
2022/01/10 03:42:12;;;;;;;;;;;5.40;99.90;;;;;;5080455;28;19911;-44
2022/01/10 03:44:38;;;;;;;;;;;5.30;99.90;;;;;;5061320;28;19904;-45
2022/01/10 03:47:05;;;;;;;;;;;5.30;99.90;;;;;;5061447;28;19987;-44
2022/01/10 03:49:32;;;;;;;;;;;5.30;99.90;;;;;;5078479;28;19958;-46
2022/01/10 03:51:59;;;;;;;;;;;5.20;99.90;;;;;;5076955;28;20303;-48
2022/01/10 03:54:26;;;;;;;;;;;5.20;99.90;;;;;;5060635;28;20016;-47
2022/01/10 03:56:52;;;;;;;;;;;5.10;99.90;;;;;;5060549;28;20259;-45
2022/01/10 03:59:19;;;;;;;;;;;5.10;99.90;;;;;;5060541;28;19915;-48
2022/01/10 04:01:46;;;;;;;;;;;5.10;99.90;;;;;;5061379;28;19916;-46
2022/01/10 04:04:13;;;;;;;;;;;5.10;99.90;;;;;;5077198;28;20021;-47
2022/01/10 04:06:41;;;;;;;;;;;5.10;99.90;;;;;;5059764;28;20162;-45
2022/01/10 04:09:08;;;;;;;;;;;5.00;99.90;;;;;;5060175;28;19944;-44
2022/01/10 04:11:35;;;;;;;;;;;5.10;99.90;;;;;;5059723;28;19923;-46
2022/01/10 04:14:01;;;;;;;;;;;5.10;99.90;;;;;;5060852;28;19908;-46
2022/01/10 04:16:28;;;;;;;;;;;5.10;99.90;;;;;;5060253;28;20185;-45
2022/01/10 04:18:54;;;;;;;;;;;5.00;99.90;;;;;;5079030;28;19904;-47
2022/01/10 04:21:21;;;;;;;;;;;5.00;99.90;;;;;;5062186;28;19989;-44
2022/01/10 04:23:48;;;;;;;;;;;5.00;99.90;;;;;;5061850;28;20019;-45
2022/01/10 04:26:15;;;;;;;;;;;5.00;99.90;;;;;;5061635;28;19999;-45
2022/01/10 04:28:42;;;;;;;;;;;5.00;99.90;;;;;;5078911;28;19919;-45
2022/01/10 04:31:11;;;;;;;;;;;5.00;99.90;;;;;;5060593;28;19934;-44
2022/01/10 04:33:38;;;;;;;;;;;4.90;99.90;;;;;;5077593;28;19917;-44
2022/01/10 04:36:04;;;;;;;;;;;4.90;99.90;;;;;;5076643;28;20335;-44
2022/01/10 04:38:30;;;;;;;;;;;4.90;99.90;;;;;;5058246;28;19908;-49
2022/01/10 04:40:57;;;;;;;;;;;4.90;99.90;;;;;;5059103;28;19904;-44
2022/01/10 04:43:24;;;;;;;;;;;4.90;99.90;;;;;;5058483;28;20430;-44
2022/01/10 04:45:50;;;;;;;;;;;5.00;99.90;;;;;;5058861;28;19923;-44
2022/01/10 04:48:18;;;;;;;;;;;4.90;99.90;;;;;;5059380;28;19950;-44
2022/01/10 04:53:33;;;;;;;;;;;4.90;99.90;;;;;;5077165;28;20466;-44
2022/01/10 04:56:00;;;;;;;;;;;4.90;99.90;;;;;;5077610;28;19955;-46
2022/01/10 04:58:26;;;;;;;;;;;5.00;99.90;;;;;;5060335;28;20253;-44
2022/01/10 05:00:54;;;;;;;;;;;4.90;99.90;;;;;;5077557;28;20252;-48
2022/01/10 05:03:21;;;;;;;;;;;4.90;99.90;;;;;;5059195;28;19908;-46
2022/01/10 05:05:53;;;;;;;;;;;4.90;99.90;;;;;;5076675;28;20290;-45
2022/01/10 05:08:20;;;;;;;;;;;4.90;99.90;;;;;;5059206;28;19912;-45
2022/01/10 05:10:48;;;;;;;;;;;4.90;99.90;;;;;;5075157;28;19905;-45
2022/01/10 05:13:15;;;;;;;;;;;4.90;99.90;;;;;;5055715;28;20449;-45
2022/01/10 05:15:49;;;;;;;;;;;4.90;99.90;;;;;;5054824;28;20185;-45
2022/01/10 05:18:19;;;;;;;;;;;5.00;99.90;;;;;;5073170;28;19944;-45
2022/01/10 05:20:46;;;;;;;;;;;5.00;99.90;;;;;;5055584;28;19905;-47
2022/01/10 05:23:14;;;;;;;;;;;5.00;99.90;;;;;;5055496;28;19973;-46
2022/01/10 05:25:41;;;;;;;;;;;5.00;99.90;;;;;;5058125;28;19962;-45
2022/01/10 05:28:09;;;;;;;;;;;4.90;99.90;;;;;;5057107;28;19908;-45
2022/01/10 05:30:37;;;;;;;;;;;4.90;99.90;;;;;;5057914;28;19912;-45
2022/01/10 05:33:05;;;;;;;;;;;5.00;99.90;;;;;;5075067;28;20189;-48
2022/01/10 05:35:32;;;;;;;;;;;5.00;99.90;;;;;;5058713;28;19912;-45
2022/01/10 05:37:57;;;;;;;;;;;5.00;99.90;;;;;;5058226;28;19909;-45
2022/01/10 05:40:24;;;;;;;;;;;5.00;99.90;;;;;;5074825;28;19918;-45
2022/01/10 05:42:51;;;;;;;;;;;5.00;99.90;;;;;;5055765;28;20169;-47
2022/01/10 05:45:18;;;;;;;;;;;5.00;99.90;;;;;;5054990;28;19922;-47
2022/01/10 05:47:46;;;;;;;;;;;5.00;99.90;;;;;;5056394;28;19909;-47
2022/01/10 05:50:19;;;;;;;;;;;5.00;99.90;;;;;;5056518;28;19915;-45
2022/01/10 05:52:46;;;;;;;;;;;5.00;99.90;;;;;;5074587;28;19904;-47
2022/01/10 05:55:13;;;;;;;;;;;5.00;99.90;;;;;;5054765;28;19927;-47
2022/01/10 05:57:40;;;;;;;;;;;5.00;99.90;;;;;;5086829;28;19951;-47
2022/01/10 06:00:06;;;;;;;;;;;5.10;99.90;;;;;;5077605;28;19915;-45
2022/01/10 06:02:33;;;;;;;;;;;5.10;99.90;;;;;;5077603;28;19915;-45
2022/01/10 06:05:05;;;;;;;;;;;5.00;99.90;;;;;;5077578;28;19904;-49
2022/01/10 06:07:32;;;;;;;;;;;5.00;99.90;;;;;;5094429;28;19922;-45
2022/01/10 06:09:59;;;;;;;;;;;5.00;99.90;;;;;;5093271;28;19962;-46
2022/01/10 06:12:25;;;;;;;;;;;5.00;99.90;;;;;;5092707;28;20006;-46
2022/01/10 06:14:52;;;;;;;;;;;5.00;99.90;;;;;;5071506;28;19990;-44
2022/01/10 06:17:19;;;;;;;;;;;5.10;99.90;;;;;;5056555;28;19970;-46
2022/01/10 06:19:46;;;;;;;;;;;5.10;99.90;;;;;;5073763;28;19927;-45
2022/01/10 06:22:13;;;;;;;;;;;5.10;99.90;;;;;;5056099;28;20357;-47
2022/01/10 06:24:40;;;;;;;;;;;5.10;99.90;;;;;;5056279;28;19905;-46
2022/01/10 06:27:07;;;;;;;;;;;5.10;99.90;;;;;;5042987;28;19923;-47
2022/01/10 06:29:33;;;;;;;;;;;5.10;99.90;;;;;;5057995;28;20005;-45
2022/01/10 06:31:59;;;;;;;;;;;5.10;99.90;;;;;;5075627;28;19944;-47
2022/01/10 06:34:26;;;;;;;;;;;5.20;99.90;;;;;;5059880;28;19912;-47
2022/01/10 06:36:53;;;;;;;;;;;5.20;99.90;;;;;;5058793;28;19908;-48
2022/01/10 06:39:19;;;;;;;;;;;5.20;99.90;;;;;;5076041;28;19908;-47
2022/01/10 06:41:47;;;;;;;;;;;5.20;99.90;;;;;;5060224;28;20192;-45
2022/01/10 06:44:13;;;;;;;;;;;5.20;99.90;;;;;;5060000;28;19913;-45
2022/01/10 06:46:40;;;;;;;;;;;5.20;99.90;;;;;;5058338;28;19915;-45
2022/01/10 06:49:07;;;;;;;;;;;5.20;99.90;;;;;;5057514;28;20003;-46
2022/01/10 06:51:34;;;;;;;;;;;5.10;99.90;;;;;;5072685;28;19912;-48
2022/01/10 06:54:00;;;;;;;;;;;5.10;99.90;;;;;;5054897;28;19904;-45
2022/01/10 06:56:27;;;;;;;;;;;5.10;99.90;;;;;;5056000;28;19974;-45
2022/01/10 06:58:53;;;;;;;;;;;5.10;99.90;;;;;;5054898;28;19958;-46
2022/01/10 07:01:20;;;;;;;;;;;5.00;99.90;;;;;;5054950;28;19916;-45
2022/01/10 07:03:47;;;;;;;;;;;5.00;99.90;;;;;;5056020;28;20006;-45
2022/01/10 07:06:14;;;;;;;;;;;5.00;99.90;;;;;;5074233;28;19913;-44
2022/01/10 07:08:41;;;;;;;;;;;5.00;99.90;;;;;;5075201;28;19908;-46
2022/01/10 07:11:08;;;;;;;;;;;5.00;99.90;;;;;;5075153;28;20450;-46
2022/01/10 07:13:35;;;;;;;;;;;4.90;99.90;;;;;;5058779;28;19908;-46
2022/01/10 07:16:02;;;;;;;;;;;5.00;99.90;;;;;;5059127;28;19936;-45
2022/01/10 07:18:28;;;;;;;;;;;5.00;99.90;;;;;;5058451;28;19912;-46
2022/01/10 07:20:54;;;;;;;;;;;4.90;99.90;;;;;;5058363;28;19916;-47
2022/01/10 07:23:22;;;;;;;;;;;4.90;99.90;;;;;;5060067;28;19904;-45
2022/01/10 07:25:49;;;;;;;;;;;4.90;99.90;;;;;;5058441;28;19916;-46
2022/01/10 07:28:14;;;;;;;;;;;4.90;99.90;;;;;;5041728;28;19992;-49
2022/01/10 07:30:40;;;;;;;;;;;4.90;99.90;;;;;;5057175;28;20219;-45
2022/01/10 07:33:07;;;;;;;;;;;4.90;99.90;;;;;;5055325;28;19920;-48
2022/01/10 07:35:34;;;;;;;;;;;4.90;99.90;;;;;;5054393;28;19915;-48
2022/01/10 07:38:00;;;;;;;;;;;4.80;99.90;;;;;;5052634;28;20189;-49
2022/01/10 07:40:27;;;;;;;;;;;4.90;99.90;;;;;;5052204;28;19913;-48
2022/01/10 07:42:54;;;;;;;;;;;4.80;99.90;;;;;;5052321;28;19919;-45
2022/01/10 07:45:20;;;;;;;;;;;4.80;99.90;;;;;;5054492;28;20346;-46
2022/01/10 07:47:46;;;;;;;;;;;4.80;99.90;;;;;;5053975;28;20228;-45
2022/01/10 07:50:13;;;;;;;;;;;4.80;99.90;;;;;;5053538;28;20316;-45
2022/01/10 07:52:40;;;;;;;;;;;4.80;99.90;;;;;;5051459;28;19915;-49
2022/01/10 07:55:06;;;;;;;;;;;4.90;99.90;;;;;;5053441;28;19916;-45
2022/01/10 07:57:32;;;;;;;;;;;4.80;99.90;;;;;;5052628;28;19909;-45
2022/01/10 07:59:58;;;;;;;;;;;4.90;99.90;;;;;;5053517;28;19915;-46
2022/01/10 08:02:26;;;;;;;;;;;4.90;99.90;;;;;;5054008;28;19913;-52
2022/01/10 08:04:52;;;;;;;;;;;4.80;99.90;;;;;;5053199;28;20059;-47
2022/01/10 08:07:19;;;;;;;;;;;4.90;99.90;;;;;;5052764;28;19916;-48
2022/01/10 08:09:46;;;;;;;;;;;4.80;99.90;;;;;;5053967;28;20015;-47
2022/01/10 08:12:13;;;;;;;;;;;4.80;99.90;;;;;;5056965;28;19908;-48
2022/01/10 08:14:39;;;;;;;;;;;4.80;99.90;;;;;;5056373;28;19908;-45
2022/01/10 08:17:05;;;;;;;;;;;4.90;99.90;;;;;;5056592;28;19963;-45
2022/01/10 08:19:34;;;;;;;;;;;4.90;99.90;;;;;;5056694;28;20293;-45
2022/01/10 08:22:04;;;;;;;;;;;4.90;99.90;;;;;;5054854;28;19912;-45
2022/01/10 08:24:30;;;;;;;;;;;4.80;99.90;;;;;;5053608;28;20005;-51
2022/01/10 08:26:57;;;;;;;;;;;4.80;99.90;;;;;;5055064;28;19951;-45
2022/01/10 08:29:23;;;;;;;;;;;4.90;99.90;;;;;;5054631;28;19909;-51
2022/01/10 08:31:49;;;;;;;;;;;4.90;99.90;;;;;;5052674;28;20018;-48
2022/01/10 08:34:16;;;;;;;;;;;4.90;99.90;;;;;;5089687;28;20350;-47
2022/01/10 08:36:42;;;;;;;;;;;4.90;99.90;;;;;;5056322;28;20276;-48
2022/01/10 08:39:09;;;;;;;;;;;4.90;99.90;;;;;;5040787;28;19979;-45
2022/01/10 08:41:37;;;;;;;;;;;5.00;99.90;;;;;;5057673;28;19908;-45
2022/01/10 08:44:04;;;;;;;;;;;4.90;99.90;;;;;;5076351;28;19912;-47
2022/01/10 08:46:30;;;;;;;;;;;5.00;99.90;;;;;;5057109;28;20266;-49
2022/01/10 08:48:57;;;;;;;;;;;5.00;99.90;;;;;;5057756;28;19955;-48
2022/01/10 08:51:24;;;;;;;;;;;5.00;99.90;;;;;;5057565;28;19998;-46
2022/01/10 08:53:51;;;;;;;;;;;5.10;99.90;;;;;;5057906;28;19924;-49
2022/01/10 08:56:17;;;;;;;;;;;5.10;99.90;;;;;;5057694;28;20285;-48
2022/01/10 08:58:44;;;;;;;;;;;5.10;99.90;;;;;;5057457;28;20401;-46
2022/01/10 09:01:11;;;;;;;;;;;5.10;99.90;;;;;;5058664;28;19916;-45
2022/01/10 09:03:38;;;;;;;;;;;5.10;99.90;;;;;;5059179;28;19919;-47
2022/01/10 09:06:05;;;;;;;;;;;5.10;99.90;;;;;;5074094;28;19947;-46
2022/01/10 09:08:33;;;;;;;;;;;5.10;99.90;;;;;;5074431;28;19915;-47
2022/01/10 09:11:00;;;;;;;;;;;5.10;99.90;;;;;;5074237;28;19951;-45
2022/01/10 09:13:27;;;;;;;;;;;5.10;99.90;;;;;;5055094;28;19908;-47
2022/01/10 09:15:54;;;;;;;;;;;5.00;99.90;;;;;;5056029;28;20129;-46
2022/01/10 09:18:21;;;;;;;;;;;5.10;99.90;;;;;;5036951;28;19912;-48
2022/01/10 09:20:51;;;;;;;;;;;5.10;99.90;;;;;;5054624;28;19919;-47
2022/01/10 09:23:18;;;;;;;;;;;5.20;99.90;;;;;;5071501;28;19991;-48
2022/01/10 09:25:45;;;;;;;;;;;5.20;99.90;;;;;;5055598;28;19905;-51
2022/01/10 09:28:10;;;;;;;;;;;5.10;99.90;;;;;;5070619;28;19914;-45
2022/01/10 09:30:36;;;;;;;;;;;5.10;99.90;;;;;;5038716;28;20015;-46
2022/01/10 09:33:03;;;;;;;;;;;5.20;99.90;;;;;;5057053;28;19997;-45
2022/01/10 09:35:28;;;;;;;;;;;5.20;99.90;;;;;;5055999;28;19904;-44
2022/01/10 09:37:55;;;;;;;;;;;5.20;99.90;;;;;;5056008;28;19904;-48
2022/01/10 09:40:21;;;;;;;;;;;5.20;99.90;;;;;;5055959;28;19908;-46
2022/01/10 09:42:48;;;;;;;;;;;5.20;99.90;;;;;;5057048;28;19961;-45
2022/01/10 09:45:14;;;;;;;;;;;5.20;99.90;;;;;;5054392;28;19972;-44
2022/01/10 09:47:39;;;;;;;;;;;5.20;99.90;;;;;;5053323;28;19909;-45
2022/01/10 09:50:07;;;;;;;;;;;5.20;99.90;;;;;;5054304;28;19904;-46
2022/01/10 09:52:32;;;;;;;;;;;5.20;99.90;;;;;;5053658;28;19912;-45
2022/01/10 09:54:58;;;;;;;;;;;5.20;99.90;;;;;;5053967;28;19949;-45
2022/01/10 09:57:23;;;;;;;;;;;5.20;99.90;;;;;;5085786;28;19964;-45
2022/01/10 09:59:49;;;;;;;;;;;5.20;99.90;;;;;;5074268;28;19941;-46
2022/01/10 10:02:15;;;;;;;;;;;5.20;99.90;;;;;;5072969;28;19904;-49
2022/01/10 10:04:41;;;;;;;;;;;5.20;99.90;;;;;;5078290;28;19904;-45
2022/01/10 10:07:07;;;;;;;;;;;5.30;99.90;;;;;;5094959;28;19912;-47
2022/01/10 10:09:33;;;;;;;;;;;5.20;99.90;;;;;;5077453;28;19999;-46
2022/01/10 10:12:00;;;;;;;;;;;5.30;99.90;;;;;;5075688;28;19908;-47
2022/01/10 10:14:26;;;;;;;;;;;5.30;99.90;;;;;;5076461;28;20469;-45
2022/01/10 10:16:55;;;;;;;;;;;5.30;99.90;;;;;;5076226;28;20527;-45
2022/01/10 10:19:23;;;;;;;;;;;5.30;99.90;;;;;;5058833;28;19905;-48
2022/01/10 10:21:50;;;;;;;;;;;5.30;99.90;;;;;;5055536;28;20003;-47
2022/01/10 10:24:16;;;;;;;;;;;5.30;99.90;;;;;;5071945;28;19911;-49
2022/01/10 10:26:42;;;;;;;;;;;5.40;99.90;;;;;;5071975;28;19908;-47
2022/01/10 10:29:09;;;;;;;;;;;5.40;99.90;;;;;;5053187;28;19912;-47
2022/01/10 10:31:43;;;;;;;;;;;5.40;99.90;;;;;;5053014;28;20011;-46
2022/01/10 10:34:12;;;;;;;;;;;5.40;99.90;;;;;;5053447;28;19936;-51
2022/01/10 10:36:38;;;;;;;;;;;5.50;99.90;;;;;;5058420;28;20272;-45
2022/01/10 10:39:07;;;;;;;;;;;5.40;99.90;;;;;;5059182;28;19919;-45
2022/01/10 10:41:36;;;;;;;;;;;5.40;99.90;;;;;;5060107;28;19912;-46
2022/01/10 10:44:04;;;;;;;;;;;5.40;99.90;;;;;;5077768;28;19914;-45
2022/01/10 10:46:29;;;;;;;;;;;5.40;99.90;;;;;;5059016;28;19908;-45
2022/01/10 10:49:02;;;;;;;;;;;5.40;99.90;;;;;;5076844;28;19917;-45
2022/01/10 10:51:32;;;;;;;;;;;5.40;99.90;;;;;;5076172;28;19912;-45
2022/01/10 10:54:03;;;;;;;;;;;5.40;99.90;;;;;;5076240;28;19919;-46
2022/01/10 10:56:34;;;;;;;;;;;5.40;99.90;;;;;;5059139;28;19908;-46
2022/01/10 10:59:01;;;;;;;;;;;5.40;99.90;;;;;;5057739;28;20007;-45
2022/01/10 11:01:28;;;;;;;;;;;5.40;99.90;;;;;;5057603;28;19912;-45
2022/01/10 11:03:54;;;;;;;;;;;5.40;99.90;;;;;;5059027;28;19919;-47
2022/01/10 11:06:21;;;;;;;;;;;5.50;99.90;;;;;;5057627;28;19964;-45
2022/01/10 11:08:48;;;;;;;;;;;5.50;99.90;;;;;;5058218;28;19969;-45
2022/01/10 11:11:14;;;;;;;;;;;5.50;99.90;;;;;;5058713;28;19920;-46
2022/01/10 11:13:41;;;;;;;;;;;5.50;99.90;;;;;;5059668;28;19909;-50
2022/01/10 11:16:08;;;;;;;;;;;5.50;99.90;;;;;;5058960;28;19908;-46
2022/01/10 11:18:34;;;;;;;;;;;5.50;99.90;;;;;;5077368;28;19974;-49
2022/01/10 11:21:02;;;;;;;;;;;5.50;99.90;;;;;;5057829;28;19990;-46
2022/01/10 11:23:28;;;;;;;;;;;5.50;99.90;;;;;;5075239;28;20489;-46
2022/01/10 11:25:58;;;;;;;;;;;5.60;99.90;;;;;;5058202;28;19918;-46
2022/01/10 11:28:26;;;;;;;;;;;5.50;99.90;;;;;;5058889;28;19953;-45
2022/01/10 11:30:53;;;;;;;;;;;5.60;99.90;;;;;;5057791;28;19913;-50
2022/01/10 11:33:21;;;;;;;;;;;5.60;99.90;;;;;;5055261;28;19920;-47
2022/01/10 11:35:58;;;;;;;;;;;5.60;99.90;;;;;;5053493;28;20303;-48
2022/01/10 11:38:29;;;;;;;;;;;5.60;99.90;;;;;;5053726;28;19904;-47
2022/01/10 11:40:56;;;;;;;;;;;5.60;99.90;;;;;;5054207;28;19942;-45
2022/01/10 11:43:33;;;;;;;;;;;5.70;99.90;;;;;;5052155;28;20007;-47
2022/01/10 11:46:11;;;;;;;;;;;5.60;99.90;;;;;;5053929;28;19905;-45
2022/01/10 11:48:44;;;;;;;;;;;5.70;99.90;;;;;;5052003;28;20204;-45
2022/01/10 11:51:21;;;;;;;;;;;5.60;99.90;;;;;;5051885;28;19939;-46
2022/01/10 11:53:47;;;;;;;;;;;5.70;99.90;;;;;;5050952;28;19904;-45
2022/01/10 11:56:23;;;;;;;;;;;5.60;99.90;;;;;;5055782;28;19914;-45
2022/01/10 11:59:07;;;;;;;;;;;5.70;99.90;;;;;;5073151;28;19915;-47
2022/01/10 12:01:34;;;;;;;;;;;5.60;99.90;;;;;;5074297;28;19904;-45
2022/01/10 12:03:59;;;;;;;;;;;5.60;99.90;;;;;;5073168;28;20214;-45
2022/01/10 12:06:25;;;;;;;;;;;5.60;99.90;;;;;;5072667;28;19904;-48
2022/01/10 12:08:53;;;;;;;;;;;5.70;99.90;;;;;;5072592;28;19968;-45
2022/01/10 12:11:21;;;;;;;;;;;5.70;99.90;;;;;;5070392;28;19964;-46
2022/01/10 12:13:46;;;;;;;;;;;5.70;99.90;;;;;;5068192;28;19904;-45
2022/01/10 12:16:12;;;;;;;;;;;5.80;99.90;;;;;;5067851;28;19911;-46
2022/01/10 12:18:38;;;;;;;;;;;5.70;99.90;;;;;;5065901;28;19963;-46
2022/01/10 12:21:03;;;;;;;;;;;5.70;99.90;;;;;;5067558;28;20241;-47
2022/01/10 12:23:29;;;;;;;;;;;5.70;99.90;;;;;;5070068;28;20301;-46
2022/01/10 12:25:54;;;;;;;;;;;5.70;99.90;;;;;;5066513;28;19904;-46
2022/01/10 12:28:19;;;;;;;;;;;5.70;99.90;;;;;;5069041;28;19904;-46
2022/01/10 12:30:45;;;;;;;;;;;5.70;99.90;;;;;;5051754;28;20384;-46
2022/01/10 12:33:11;;;;;;;;;;;5.70;99.90;;;;;;5052939;28;19924;-45
2022/01/10 12:35:36;;;;;;;;;;;5.60;99.90;;;;;;5068913;28;20197;-46
2022/01/10 12:38:02;;;;;;;;;;;5.60;99.90;;;;;;5050290;28;19904;-46
2022/01/10 12:40:32;;;;;;;;;;;5.70;99.90;;;;;;5053702;28;19919;-47
2022/01/10 12:42:58;;;;;;;;;;;5.70;99.90;;;;;;5055189;28;19912;-47
2022/01/10 12:45:23;;;;;;;;;;;5.70;99.90;;;;;;5069807;28;20280;-49
2022/01/10 12:47:49;;;;;;;;;;;5.70;99.90;;;;;;5067136;28;19939;-51
2022/01/10 12:50:14;;;;;;;;;;;5.70;99.90;;;;;;5050758;28;19908;-52
2022/01/10 12:52:41;;;;;;;;;;;5.70;99.90;;;;;;5069893;28;19904;-48
2022/01/10 12:55:06;;;;;;;;;;;5.70;99.90;;;;;;5067930;28;19957;-46
2022/01/10 12:57:32;;;;;;;;;;;5.70;99.90;;;;;;5048834;28;19912;-49
2022/01/10 12:59:59;;;;;;;;;;;5.70;99.90;;;;;;5068056;28;19904;-47
2022/01/10 13:02:24;;;;;;;;;;;5.70;99.90;;;;;;5048363;28;19912;-48
2022/01/10 13:04:50;;;;;;;;;;;5.70;99.90;;;;;;5049911;28;19912;-46
2022/01/10 13:07:17;;;;;;;;;;;5.70;99.90;;;;;;5049838;28;20177;-47
2022/01/10 13:09:44;;;;;;;;;;;5.70;99.90;;;;;;5048942;28;19916;-45
2022/01/10 13:12:23;;;;;;;;;;;5.70;99.90;;;;;;5051425;28;19923;-45
2022/01/10 13:14:49;;;;;;;;;;;5.70;99.90;;;;;;5050173;28;19984;-49
2022/01/10 13:17:14;;;;;;;;;;;5.60;99.90;;;;;;5049483;28;19905;-45
2022/01/10 13:19:44;;;;;;;;;;;5.60;99.90;;;;;;5049669;28;19984;-46
2022/01/10 13:22:12;;;;;;;;;;;5.70;99.90;;;;;;5051599;28;19991;-48
2022/01/10 13:24:53;;;;;;;;;;;5.70;99.90;;;;;;5070419;28;19915;-46
2022/01/10 13:27:25;;;;;;;;;;;5.70;99.90;;;;;;5071594;28;20470;-48
2022/01/10 13:29:54;;;;;;;;;;;5.70;99.90;;;;;;5037490;28;19908;-49
2022/01/10 13:32:37;;;;;;;;;;;5.70;99.90;;;;;;5048498;28;19952;-47
2022/01/10 13:35:07;;;;;;;;;;;5.70;99.90;;;;;;5048866;28;20451;-50
2022/01/10 13:37:36;;;;;;;;;;;5.60;99.90;;;;;;5049964;28;19916;-46
2022/01/10 13:40:06;;;;;;;;;;;5.60;99.90;;;;;;5049806;28;19908;-47
2022/01/10 13:42:36;;;;;;;;;;;5.60;99.90;;;;;;5052061;28;19905;-46
2022/01/10 13:45:02;;;;;;;;;;;5.60;99.90;;;;;;5051778;28;19909;-47
2022/01/10 13:47:45;;;;;;;;;;;5.50;99.90;;;;;;5051082;28;19978;-49
2022/01/10 13:50:19;;;;;;;;;;;5.50;99.90;;;;;;5049545;28;19905;-45
2022/01/10 13:53:03;;;;;;;;;;;5.60;99.90;;;;;;5050047;28;20488;-49
2022/01/10 13:55:29;;;;;;;;;;;5.60;99.90;;;;;;5048339;28;19905;-47
2022/01/10 13:57:54;;;;;;;;;;;5.60;99.90;;;;;;5066075;28;19963;-49
2022/01/10 14:00:23;;;;;;;;;;;5.60;99.90;;;;;;5062226;28;19916;-45
2022/01/10 14:02:50;;;;;;;;;;;5.60;99.90;;;;;;5065542;28;19923;-46
2022/01/10 14:05:18;;;;;;;;;;;5.60;99.90;;;;;;5066974;28;19904;-47
2022/01/10 14:07:44;;;;;;;;;;;5.60;99.90;;;;;;5063826;28;19908;-44
2022/01/10 14:10:09;;;;;;;;;;;5.60;99.90;;;;;;5063341;28;20245;-49
2022/01/10 14:12:37;;;;;;;;;;;5.60;99.90;;;;;;5064105;28;20069;-46
2022/01/10 14:15:03;;;;;;;;;;;5.60;99.90;;;;;;5064186;28;19919;-46
2022/01/10 14:17:28;;;;;;;;;;;5.70;99.90;;;;;;5066250;28;19913;-48
2022/01/10 14:19:54;;;;;;;;;;;5.60;99.90;;;;;;5067833;28;19970;-47
2022/01/10 14:22:19;;;;;;;;;;;5.60;99.90;;;;;;5067009;28;19904;-46
2022/01/10 14:24:45;;;;;;;;;;;5.60;99.90;;;;;;5065557;28;19958;-45
2022/01/10 14:27:10;;;;;;;;;;;5.60;99.90;;;;;;5052043;28;19909;-45
2022/01/10 14:29:36;;;;;;;;;;;5.60;99.90;;;;;;5046581;28;19919;-46
2022/01/10 14:32:01;;;;;;;;;;;5.60;99.90;;;;;;5047091;28;20015;-45
2022/01/10 14:34:27;;;;;;;;;;;5.70;99.90;;;;;;5049195;28;19919;-46
2022/01/10 14:36:52;;;;;;;;;;;5.70;99.90;;;;;;5047739;28;20003;-47
2022/01/10 14:39:18;;;;;;;;;;;5.60;99.90;;;;;;5067634;28;19939;-47
2022/01/10 14:41:46;;;;;;;;;;;5.60;99.90;;;;;;5053256;28;20007;-45
2022/01/10 14:44:18;;;;;;;;;;;5.60;99.90;;;;;;5074178;28;20412;-44
2022/01/10 14:46:43;;;;;;;;;;;5.60;99.90;;;;;;5056587;28;20193;-47
2022/01/10 14:49:10;;;;;;;;;;;5.60;99.90;;;;;;5056358;28;20265;-49
2022/01/10 14:51:36;;;;;;;;;;;5.60;99.90;;;;;;5059062;28;19996;-45
2022/01/10 14:54:03;;;;;;;;;;;5.70;99.90;;;;;;5059213;28;19915;-46
2022/01/10 14:56:30;;;;;;;;;;;5.60;99.90;;;;;;5076171;28;19909;-45
2022/01/10 14:58:55;;;;;;;;;;;5.70;99.90;;;;;;5058195;28;19912;-50